sensor_id;sensor_type;location;lat;lon;timestamp;pressure;altitude;pressure_sealevel;temperature;humidity
31121;BME280;17770;45.966;13.632;2023-01-28T00:01:08;100523.41;;;12.52;58.29
31121;BME280;17770;45.966;13.632;2023-01-28T00:03:34;100505.28;;;12.52;58.96
31121;BME280;17770;45.966;13.632;2023-01-28T00:06:04;100519.97;;;12.52;58.45
31121;BME280;17770;45.966;13.632;2023-01-28T00:08:31;100512.19;;;12.52;58.92
31121;BME280;17770;45.966;13.632;2023-01-28T00:10:59;100507.88;;;12.52;58.95
31121;BME280;17770;45.966;13.632;2023-01-28T00:13:25;100513.06;;;12.52;58.89
31121;BME280;17770;45.966;13.632;2023-01-28T00:15:55;100509.63;;;12.52;59.34
31121;BME280;17770;45.966;13.632;2023-01-28T00:18:21;100520.81;;;12.52;58.64
31121;BME280;17770;45.966;13.632;2023-01-28T00:21:07;100514.78;;;12.52;58.54
31121;BME280;17770;45.966;13.632;2023-01-28T00:23:35;100516.47;;;12.53;59.80
31121;BME280;17770;45.966;13.632;2023-01-28T00:26:02;100517.31;;;12.53;58.59
31121;BME280;17770;45.966;13.632;2023-01-28T00:28:28;100517.38;;;12.52;58.34
31121;BME280;17770;45.966;13.632;2023-01-28T00:30:54;100522.50;;;12.53;59.27
31121;BME280;17770;45.966;13.632;2023-01-28T00:33:20;100512.16;;;12.53;58.17
31121;BME280;17770;45.966;13.632;2023-01-28T00:35:45;100519.09;;;12.51;58.92
31121;BME280;17770;45.966;13.632;2023-01-28T00:38:11;100518.22;;;12.52;58.98
31121;BME280;17770;45.966;13.632;2023-01-28T00:40:37;100515.63;;;12.52;58.69
31121;BME280;17770;45.966;13.632;2023-01-28T00:43:03;100509.63;;;12.52;58.68
31121;BME280;17770;45.966;13.632;2023-01-28T00:45:29;100513.94;;;12.51;58.99
31121;BME280;17770;45.966;13.632;2023-01-28T00:47:55;100513.13;;;12.51;58.98
31121;BME280;17770;45.966;13.632;2023-01-28T00:50:21;100515.63;;;12.52;58.52
31121;BME280;17770;45.966;13.632;2023-01-28T00:52:47;100510.47;;;12.52;58.78
31121;BME280;17770;45.966;13.632;2023-01-28T00:55:13;100517.38;;;12.52;58.58
31121;BME280;17770;45.966;13.632;2023-01-28T00:57:40;100512.19;;;12.52;58.94
31121;BME280;17770;45.966;13.632;2023-01-28T01:00:06;100517.31;;;12.53;58.96
31121;BME280;17770;45.966;13.632;2023-01-28T01:02:32;100520.81;;;12.52;59.01
31121;BME280;17770;45.966;13.632;2023-01-28T01:04:58;100524.28;;;12.51;58.54
31121;BME280;17770;45.966;13.632;2023-01-28T01:07:29;100521.69;;;12.51;58.60
31121;BME280;17770;45.966;13.632;2023-01-28T01:10:09;100517.38;;;12.52;59.09
31121;BME280;17770;45.966;13.632;2023-01-28T01:12:36;100527.72;;;12.52;59.08
31121;BME280;17770;45.966;13.632;2023-01-28T01:15:02;100527.72;;;12.52;59.13
31121;BME280;17770;45.966;13.632;2023-01-28T01:17:30;100531.16;;;12.52;58.69
31121;BME280;17770;45.966;13.632;2023-01-28T01:19:56;100537.22;;;12.51;58.43
31121;BME280;17770;45.966;13.632;2023-01-28T01:22:22;100538.00;;;12.53;58.15
31121;BME280;17770;45.966;13.632;2023-01-28T01:24:48;100543.25;;;12.52;58.99
31121;BME280;17770;45.966;13.632;2023-01-28T01:27:14;100553.59;;;12.52;59.21
31121;BME280;17770;45.966;13.632;2023-01-28T01:29:40;100553.66;;;12.50;59.33
31121;BME280;17770;45.966;13.632;2023-01-28T01:32:06;100560.50;;;12.51;59.07
31121;BME280;17770;45.966;13.632;2023-01-28T01:34:32;100566.53;;;12.52;59.10
31121;BME280;17770;45.966;13.632;2023-01-28T01:36:57;100560.50;;;12.51;59.45
31121;BME280;17770;45.966;13.632;2023-01-28T01:39:23;100575.19;;;12.51;59.31
31121;BME280;17770;45.966;13.632;2023-01-28T01:41:49;100580.38;;;12.51;59.33
31121;BME280;17770;45.966;13.632;2023-01-28T01:46:59;100588.94;;;12.51;59.59
31121;BME280;17770;45.966;13.632;2023-01-28T01:49:26;100595.88;;;12.51;58.76
31121;BME280;17770;45.966;13.632;2023-01-28T01:51:56;100588.13;;;12.51;59.47
31121;BME280;17770;45.966;13.632;2023-01-28T01:54:26;100593.28;;;12.51;59.48
31121;BME280;17770;45.966;13.632;2023-01-28T01:56:55;100591.59;;;12.50;58.74
31121;BME280;17770;45.966;13.632;2023-01-28T01:59:24;100595.94;;;12.49;59.02
31121;BME280;17770;45.966;13.632;2023-01-28T02:01:52;100593.34;;;12.49;58.25
31121;BME280;17770;45.966;13.632;2023-01-28T02:04:19;100596.75;;;12.50;58.76
31121;BME280;17770;45.966;13.632;2023-01-28T02:06:47;100594.16;;;12.50;58.08
31121;BME280;17770;45.966;13.632;2023-01-28T02:09:31;100599.34;;;12.50;58.46
31121;BME280;17770;45.966;13.632;2023-01-28T02:12:00;100603.69;;;12.49;59.09
31121;BME280;17770;45.966;13.632;2023-01-28T02:14:28;100593.38;;;12.48;59.09
31121;BME280;17770;45.966;13.632;2023-01-28T02:16:56;100594.16;;;12.50;58.68
31121;BME280;17770;45.966;13.632;2023-01-28T02:19:23;100592.50;;;12.49;58.88
31121;BME280;17770;45.966;13.632;2023-01-28T02:22:05;100605.44;;;12.49;58.56
31121;BME280;17770;45.966;13.632;2023-01-28T02:24:49;100592.50;;;12.49;58.49
31121;BME280;17770;45.966;13.632;2023-01-28T02:27:23;100599.41;;;12.48;58.61
31121;BME280;17770;45.966;13.632;2023-01-28T02:29:58;100595.97;;;12.48;58.96
31121;BME280;17770;45.966;13.632;2023-01-28T02:37:24;100595.13;;;12.47;58.76
31121;BME280;17770;45.966;13.632;2023-01-28T02:39:53;100590.84;;;12.46;59.08
31121;BME280;17770;45.966;13.632;2023-01-28T02:42:23;100593.44;;;12.46;59.03
31121;BME280;17770;45.966;13.632;2023-01-28T02:44:51;100594.28;;;12.47;58.64
31121;BME280;17770;45.966;13.632;2023-01-28T02:47:17;100595.19;;;12.46;59.57
31121;BME280;17770;45.966;13.632;2023-01-28T02:50:04;100608.13;;;12.46;58.09
31121;BME280;17770;45.966;13.632;2023-01-28T03:00:19;100601.25;;;12.45;58.57
31121;BME280;17770;45.966;13.632;2023-01-28T03:02:52;100613.28;;;12.46;58.53
31121;BME280;17770;45.966;13.632;2023-01-28T03:05:27;100609.84;;;12.45;58.58
31121;BME280;17770;45.966;13.632;2023-01-28T03:07:55;100613.28;;;12.46;58.91
31121;BME280;17770;45.966;13.632;2023-01-28T03:10:21;100615.06;;;12.44;58.56
31121;BME280;17770;45.966;13.632;2023-01-28T03:12:50;100627.09;;;12.45;59.15
31121;BME280;17770;45.966;13.632;2023-01-28T03:15:38;100620.25;;;12.44;59.21
31121;BME280;17770;45.966;13.632;2023-01-28T03:18:26;100619.41;;;12.43;58.62
31121;BME280;17770;45.966;13.632;2023-01-28T03:21:33;100617.72;;;12.42;59.00
31121;BME280;17770;45.966;13.632;2023-01-28T03:24:20;100628.91;;;12.43;58.75
31121;BME280;17770;45.966;13.632;2023-01-28T03:30:13;100633.22;;;12.42;58.92
31121;BME280;17770;45.966;13.632;2023-01-28T03:33:03;100629.78;;;12.42;58.48
31121;BME280;17770;45.966;13.632;2023-01-28T03:35:48;100641.00;;;12.42;58.48
31121;BME280;17770;45.966;13.632;2023-01-28T03:38:33;100635.81;;;12.42;58.94
31121;BME280;17770;45.966;13.632;2023-01-28T03:41:10;100631.53;;;12.41;58.41
31121;BME280;17770;45.966;13.632;2023-01-28T03:43:36;100642.72;;;12.42;58.59
31121;BME280;17770;45.966;13.632;2023-01-28T03:46:03;100641.00;;;12.42;59.22
31121;BME280;17770;45.966;13.632;2023-01-28T03:48:31;100633.28;;;12.41;59.03
31121;BME280;17770;45.966;13.632;2023-01-28T03:50:58;100638.41;;;12.42;59.44
31121;BME280;17770;45.966;13.632;2023-01-28T03:53:29;100641.03;;;12.41;58.95
31121;BME280;17770;45.966;13.632;2023-01-28T03:55:56;100638.47;;;12.41;58.98
31121;BME280;17770;45.966;13.632;2023-01-28T03:58:22;100642.78;;;12.40;59.29
31121;BME280;17770;45.966;13.632;2023-01-28T04:01:05;100648.84;;;12.39;58.66
31121;BME280;17770;45.966;13.632;2023-01-28T04:03:31;100651.38;;;12.41;58.13
31121;BME280;17770;45.966;13.632;2023-01-28T04:06:01;100644.50;;;12.40;58.76
31121;BME280;17770;45.966;13.632;2023-01-28T04:08:41;100648.84;;;12.39;59.38
31121;BME280;17770;45.966;13.632;2023-01-28T04:11:42;100649.72;;;12.38;59.04
31121;BME280;17770;45.966;13.632;2023-01-28T04:14:10;100648.84;;;12.39;58.66
31121;BME280;17770;45.966;13.632;2023-01-28T04:17:00;100658.34;;;12.39;58.50
31121;BME280;17770;45.966;13.632;2023-01-28T04:19:26;100645.41;;;12.39;58.63
31121;BME280;17770;45.966;13.632;2023-01-28T04:21:53;100654.09;;;12.38;59.12
31121;BME280;17770;45.966;13.632;2023-01-28T04:24:20;100658.41;;;12.37;58.56
31121;BME280;17770;45.966;13.632;2023-01-28T04:26:46;100643.75;;;12.36;58.94
31121;BME280;17770;45.966;13.632;2023-01-28T04:29:13;100648.06;;;12.37;58.38
31121;BME280;17770;45.966;13.632;2023-01-28T04:31:39;100656.66;;;12.38;58.79
31121;BME280;17770;45.966;13.632;2023-01-28T04:34:16;100664.44;;;12.38;58.18
31121;BME280;17770;45.966;13.632;2023-01-28T04:37:11;100660.13;;;12.37;58.83
31121;BME280;17770;45.966;13.632;2023-01-28T04:39:54;100665.31;;;12.37;58.98
31121;BME280;17770;45.966;13.632;2023-01-28T04:42:37;100663.63;;;12.36;59.50
31121;BME280;17770;45.966;13.632;2023-01-28T04:45:10;100666.25;;;12.34;58.99
31121;BME280;17770;45.966;13.632;2023-01-28T04:48:08;100674.00;;;12.34;58.13
31121;BME280;17770;45.966;13.632;2023-01-28T04:50:45;100673.09;;;12.35;58.21
31121;BME280;17770;45.966;13.632;2023-01-28T04:53:17;100686.03;;;12.35;59.49
31121;BME280;17770;45.966;13.632;2023-01-28T04:55:56;100674.00;;;12.34;58.88
31121;BME280;17770;45.966;13.632;2023-01-28T04:58:23;100683.50;;;12.34;59.07
31121;BME280;17770;45.966;13.632;2023-01-28T05:00:55;100682.59;;;12.35;58.57
31121;BME280;17770;45.966;13.632;2023-01-28T05:03:21;100688.69;;;12.34;58.00
31121;BME280;17770;45.966;13.632;2023-01-28T05:05:47;100691.25;;;12.34;58.80
31121;BME280;17770;45.966;13.632;2023-01-28T05:08:21;100692.13;;;12.34;58.85
31121;BME280;17770;45.966;13.632;2023-01-28T05:10:47;100695.56;;;12.33;58.32
31121;BME280;17770;45.966;13.632;2023-01-28T05:13:14;100697.34;;;12.33;58.45
31121;BME280;17770;45.966;13.632;2023-01-28T05:15:40;100693.91;;;12.32;58.63
31121;BME280;17770;45.966;13.632;2023-01-28T05:18:06;100697.34;;;12.33;59.35
31121;BME280;17770;45.966;13.632;2023-01-28T05:20:38;100700.78;;;12.32;58.46
31121;BME280;17770;45.966;13.632;2023-01-28T05:23:04;100698.22;;;12.32;59.10
31121;BME280;17770;45.966;13.632;2023-01-28T05:25:47;100699.94;;;12.31;59.39
31121;BME280;17770;45.966;13.632;2023-01-28T05:28:14;100693.09;;;12.30;58.50
31121;BME280;17770;45.966;13.632;2023-01-28T05:30:40;100697.34;;;12.31;58.88
31121;BME280;17770;45.966;13.632;2023-01-28T05:33:06;100706.88;;;12.31;58.80
31121;BME280;17770;45.966;13.632;2023-01-28T05:35:32;100707.75;;;12.30;58.40
31121;BME280;17770;45.966;13.632;2023-01-28T05:37:58;100710.34;;;12.30;58.90
31121;BME280;17770;45.966;13.632;2023-01-28T05:40:25;100706.06;;;12.29;58.67
31121;BME280;17770;45.966;13.632;2023-01-28T05:42:51;100706.06;;;12.29;58.91
31121;BME280;17770;45.966;13.632;2023-01-28T05:45:32;100708.66;;;12.29;58.21
31121;BME280;17770;45.966;13.632;2023-01-28T05:48:05;100714.72;;;12.28;59.10
31121;BME280;17770;45.966;13.632;2023-01-28T05:51:03;100715.56;;;12.28;58.37
31121;BME280;17770;45.966;13.632;2023-01-28T05:53:37;100720.78;;;12.27;58.83
31121;BME280;17770;45.966;13.632;2023-01-28T05:56:04;100717.31;;;12.28;58.74
31121;BME280;17770;45.966;13.632;2023-01-28T05:58:31;100727.66;;;12.28;58.45
31121;BME280;17770;45.966;13.632;2023-01-28T06:01:00;100731.97;;;12.27;58.32
31121;BME280;17770;45.966;13.632;2023-01-28T06:03:34;100730.25;;;12.28;58.70
31121;BME280;17770;45.966;13.632;2023-01-28T06:06:01;100736.28;;;12.27;59.20
31121;BME280;17770;45.966;13.632;2023-01-28T06:08:27;100737.19;;;12.26;57.94
31121;BME280;17770;45.966;13.632;2023-01-28T06:10:53;100735.47;;;12.26;58.05
31121;BME280;17770;45.966;13.632;2023-01-28T06:13:20;100733.75;;;12.25;58.39
31121;BME280;17770;45.966;13.632;2023-01-28T06:16:04;100740.66;;;12.25;58.81
31121;BME280;17770;45.966;13.632;2023-01-28T06:18:42;100745.00;;;12.24;58.61
31121;BME280;17770;45.966;13.632;2023-01-28T06:21:09;100746.69;;;12.25;58.21
31121;BME280;17770;45.966;13.632;2023-01-28T06:23:35;100745.00;;;12.24;58.19
31121;BME280;17770;45.966;13.632;2023-01-28T06:26:02;100743.25;;;12.25;57.88
31121;BME280;17770;45.966;13.632;2023-01-28T06:28:29;100761.34;;;12.25;59.24
31121;BME280;17770;45.966;13.632;2023-01-28T06:30:54;100745.88;;;12.23;58.47
31121;BME280;17770;45.966;13.632;2023-01-28T06:33:20;100755.41;;;12.23;58.90
31121;BME280;17770;45.966;13.632;2023-01-28T06:35:47;100764.03;;;12.22;58.65
31121;BME280;17770;45.966;13.632;2023-01-28T06:38:13;100770.91;;;12.23;58.49
31121;BME280;17770;45.966;13.632;2023-01-28T06:40:38;100774.31;;;12.23;58.75
31121;BME280;17770;45.966;13.632;2023-01-28T06:43:05;100772.63;;;12.22;58.14
31121;BME280;17770;45.966;13.632;2023-01-28T06:45:31;100769.19;;;12.22;58.71
31121;BME280;17770;45.966;13.632;2023-01-28T06:47:57;100770.09;;;12.21;58.75
31121;BME280;17770;45.966;13.632;2023-01-28T06:50:23;100776.13;;;12.21;58.67
31121;BME280;17770;45.966;13.632;2023-01-28T06:52:49;100768.38;;;12.20;58.76
31121;BME280;17770;45.966;13.632;2023-01-28T06:55:15;100781.31;;;12.21;58.84
31121;BME280;17770;45.966;13.632;2023-01-28T06:57:41;100777.00;;;12.20;58.73
31121;BME280;17770;45.966;13.632;2023-01-28T07:00:10;100770.16;;;12.19;57.89
31121;BME280;17770;45.966;13.632;2023-01-28T07:02:37;100775.28;;;12.21;57.95
31121;BME280;17770;45.966;13.632;2023-01-28T07:05:03;100782.16;;;12.20;58.38
31121;BME280;17770;45.966;13.632;2023-01-28T07:07:30;100777.03;;;12.19;58.22
31121;BME280;17770;45.966;13.632;2023-01-28T07:09:56;100783.13;;;12.18;58.34
31121;BME280;17770;45.966;13.632;2023-01-28T07:12:22;100780.53;;;12.18;58.72
31121;BME280;17770;45.966;13.632;2023-01-28T07:14:48;100777.91;;;12.19;58.33
31121;BME280;17770;45.966;13.632;2023-01-28T07:17:14;100780.53;;;12.18;58.36
31121;BME280;17770;45.966;13.632;2023-01-28T07:19:40;100777.09;;;12.17;58.60
31121;BME280;17770;45.966;13.632;2023-01-28T07:22:06;100781.34;;;12.18;58.13
31121;BME280;17770;45.966;13.632;2023-01-28T07:24:31;100783.06;;;12.19;59.31
31121;BME280;17770;45.966;13.632;2023-01-28T07:26:58;100798.63;;;12.18;58.66
31121;BME280;17770;45.966;13.632;2023-01-28T07:29:24;100795.16;;;12.19;58.83
31121;BME280;17770;45.966;13.632;2023-01-28T07:31:50;100799.47;;;12.18;58.48
31121;BME280;17770;45.966;13.632;2023-01-28T07:34:15;100805.47;;;12.19;58.38
31121;BME280;17770;45.966;13.632;2023-01-28T07:36:41;100810.66;;;12.19;58.45
31121;BME280;17770;45.966;13.632;2023-01-28T07:39:07;100806.38;;;12.18;58.42
31121;BME280;17770;45.966;13.632;2023-01-28T07:41:33;100811.56;;;12.18;58.37
31121;BME280;17770;45.966;13.632;2023-01-28T07:44:04;100809.84;;;12.17;58.96
31121;BME280;17770;45.966;13.632;2023-01-28T07:46:30;100817.59;;;12.17;58.20
31121;BME280;17770;45.966;13.632;2023-01-28T07:48:56;100818.50;;;12.16;58.94
31121;BME280;17770;45.966;13.632;2023-01-28T07:51:22;100825.41;;;12.15;58.90
31121;BME280;17770;45.966;13.632;2023-01-28T07:53:47;100829.75;;;12.13;58.13
31121;BME280;17770;45.966;13.632;2023-01-28T07:56:13;100828.03;;;12.14;58.08
31121;BME280;17770;45.966;13.632;2023-01-28T07:58:39;100812.53;;;12.14;58.05
31121;BME280;17770;45.966;13.632;2023-01-28T08:01:05;100821.19;;;12.13;58.73
31121;BME280;17770;45.966;13.632;2023-01-28T08:03:31;100817.75;;;12.12;57.99
31121;BME280;17770;45.966;13.632;2023-01-28T08:05:57;100816.06;;;12.11;57.69
31121;BME280;17770;45.966;13.632;2023-01-28T08:08:23;100818.59;;;12.13;58.32
31121;BME280;17770;45.966;13.632;2023-01-28T08:10:49;100828.94;;;12.13;57.92
31121;BME280;17770;45.966;13.632;2023-01-28T08:13:16;100826.34;;;12.13;57.78
31121;BME280;17770;45.966;13.632;2023-01-28T08:15:42;100816.88;;;12.12;58.53
31121;BME280;17770;45.966;13.632;2023-01-28T08:18:08;100820.31;;;12.12;57.83
31121;BME280;17770;45.966;13.632;2023-01-28T08:20:34;100826.41;;;12.11;58.18
31121;BME280;17770;45.966;13.632;2023-01-28T08:23:05;100828.97;;;12.11;58.05
31121;BME280;17770;45.966;13.632;2023-01-28T08:25:31;100829.84;;;12.10;58.06
31121;BME280;17770;45.966;13.632;2023-01-28T08:27:57;100824.69;;;12.10;58.10
31121;BME280;17770;45.966;13.632;2023-01-28T08:30:23;100825.53;;;12.11;57.85
31121;BME280;17770;45.966;13.632;2023-01-28T08:32:49;100833.28;;;12.11;58.32
31121;BME280;17770;45.966;13.632;2023-01-28T08:35:15;100823.88;;;12.08;57.42
31121;BME280;17770;45.966;13.632;2023-01-28T08:37:41;100831.63;;;12.08;57.49
31121;BME280;17770;45.966;13.632;2023-01-28T08:40:07;100816.09;;;12.10;57.61
31121;BME280;17770;45.966;13.632;2023-01-28T08:42:33;100829.03;;;12.10;58.03
31121;BME280;17770;45.966;13.632;2023-01-28T08:44:59;100822.16;;;12.09;57.88
31121;BME280;17770;45.966;13.632;2023-01-28T08:47:25;100831.63;;;12.08;57.54
31121;BME280;17770;45.966;13.632;2023-01-28T08:49:51;100824.72;;;12.09;57.43
31121;BME280;17770;45.966;13.632;2023-01-28T08:52:16;100837.66;;;12.09;57.74
31121;BME280;17770;45.966;13.632;2023-01-28T08:54:42;100829.91;;;12.09;58.21
31121;BME280;17770;45.966;13.632;2023-01-28T08:57:08;100836.78;;;12.08;58.53
31121;BME280;17770;45.966;13.632;2023-01-28T08:59:34;100837.66;;;12.09;58.49
31121;BME280;17770;45.966;13.632;2023-01-28T09:02:00;100842.81;;;12.09;57.94
31121;BME280;17770;45.966;13.632;2023-01-28T09:04:25;100835.97;;;12.08;57.90
31121;BME280;17770;45.966;13.632;2023-01-28T09:06:52;100832.53;;;12.07;58.31
31121;BME280;17770;45.966;13.632;2023-01-28T09:09:18;100838.56;;;12.08;57.38
31121;BME280;17770;45.966;13.632;2023-01-28T09:11:44;100838.56;;;12.08;57.88
31121;BME280;17770;45.966;13.632;2023-01-28T09:14:10;100838.56;;;12.08;57.97
31121;BME280;17770;45.966;13.632;2023-01-28T09:16:36;100833.38;;;12.08;58.45
31121;BME280;17770;45.966;13.632;2023-01-28T09:19:01;100838.56;;;12.08;58.26
31121;BME280;17770;45.966;13.632;2023-01-28T09:21:27;100834.25;;;12.07;57.83
31121;BME280;17770;45.966;13.632;2023-01-28T09:23:53;100839.47;;;12.05;57.43
31121;BME280;17770;45.966;13.632;2023-01-28T09:26:20;100846.34;;;12.06;57.67
31121;BME280;17770;45.966;13.632;2023-01-28T09:28:46;100842.00;;;12.07;57.67
31121;BME280;17770;45.966;13.632;2023-01-28T09:31:12;100842.91;;;12.06;57.71
31121;BME280;17770;45.966;13.632;2023-01-28T09:33:38;100842.91;;;12.06;57.80
31121;BME280;17770;45.966;13.632;2023-01-28T09:36:05;100845.50;;;12.06;57.51
31121;BME280;17770;45.966;13.632;2023-01-28T09:38:31;100849.00;;;12.05;57.69
31121;BME280;17770;45.966;13.632;2023-01-28T09:40:59;100841.19;;;12.06;57.87
31121;BME280;17770;45.966;13.632;2023-01-28T09:46:12;100849.78;;;12.07;58.06
31121;BME280;17770;45.966;13.632;2023-01-28T09:48:40;100848.09;;;12.06;57.84
31121;BME280;17770;45.966;13.632;2023-01-28T09:51:08;100855.84;;;12.06;57.41
31121;BME280;17770;45.966;13.632;2023-01-28T09:53:39;100855.84;;;12.06;57.58
31121;BME280;17770;45.966;13.632;2023-01-28T09:56:15;100849.81;;;12.05;57.74
31121;BME280;17770;45.966;13.632;2023-01-28T09:58:45;100850.66;;;12.06;57.19
31121;BME280;17770;45.966;13.632;2023-01-28T10:06:30;100852.34;;;12.07;58.15
31121;BME280;17770;45.966;13.632;2023-01-28T10:16:36;100849.00;;;12.05;57.73
31121;BME280;17770;45.966;13.632;2023-01-28T10:19:07;100847.22;;;12.05;58.13
31121;BME280;17770;45.966;13.632;2023-01-28T10:21:37;100851.53;;;12.06;58.10
31121;BME280;17770;45.966;13.632;2023-01-28T10:26:50;100842.97;;;12.04;58.35
31121;BME280;17770;45.966;13.632;2023-01-28T10:29:17;100847.22;;;12.05;57.46
31121;BME280;17770;45.966;13.632;2023-01-28T10:31:51;100848.91;;;12.08;57.69
31121;BME280;17770;45.966;13.632;2023-01-28T10:34:18;100848.94;;;12.06;58.44
31121;BME280;17770;45.966;13.632;2023-01-28T10:36:44;100854.13;;;12.06;57.21
31121;BME280;17770;45.966;13.632;2023-01-28T10:39:12;100843.72;;;12.08;58.15
31121;BME280;17770;45.966;13.632;2023-01-28T10:41:39;100852.34;;;12.07;57.47
31121;BME280;17770;45.966;13.632;2023-01-28T10:44:07;100851.47;;;12.08;58.03
31121;BME280;17770;45.966;13.632;2023-01-28T10:46:36;100845.47;;;12.07;57.22
31121;BME280;17770;45.966;13.632;2023-01-28T10:51:35;100854.06;;;12.08;57.77
31121;BME280;17770;45.966;13.632;2023-01-28T10:54:02;100858.38;;;12.07;58.11
31121;BME280;17770;45.966;13.632;2023-01-28T10:56:29;100847.19;;;12.07;57.77
31121;BME280;17770;45.966;13.632;2023-01-28T10:59:00;100851.47;;;12.08;58.40
31121;BME280;17770;45.966;13.632;2023-01-28T11:01:46;100848.00;;;12.09;57.53
31121;BME280;17770;45.966;13.632;2023-01-28T11:04:35;100849.72;;;12.08;57.66
31121;BME280;17770;45.966;13.632;2023-01-28T11:07:00;100841.16;;;12.08;57.64
31121;BME280;17770;45.966;13.632;2023-01-28T11:11:52;100847.13;;;12.08;58.26
31121;BME280;17770;45.966;13.632;2023-01-28T11:14:19;100850.59;;;12.09;58.53
31121;BME280;17770;45.966;13.632;2023-01-28T11:16:45;100847.13;;;12.08;57.79
31121;BME280;17770;45.966;13.632;2023-01-28T11:19:11;100840.25;;;12.09;57.60
31121;BME280;17770;45.966;13.632;2023-01-28T11:21:37;100839.38;;;12.08;57.83
31121;BME280;17770;45.966;13.632;2023-01-28T11:24:04;100838.50;;;12.09;57.30
31121;BME280;17770;45.966;13.632;2023-01-28T11:26:32;100836.78;;;12.08;58.24
31121;BME280;17770;45.966;13.632;2023-01-28T11:28:59;100838.50;;;12.09;57.86
31121;BME280;17770;45.966;13.632;2023-01-28T11:31:25;100841.16;;;12.08;58.11
31121;BME280;17770;45.966;13.632;2023-01-28T11:33:55;100844.53;;;12.10;58.08
31121;BME280;17770;45.966;13.632;2023-01-28T11:36:23;100832.50;;;12.09;57.76
31121;BME280;17770;45.966;13.632;2023-01-28T11:38:56;100831.63;;;12.08;57.95
31121;BME280;17770;45.966;13.632;2023-01-28T11:41:33;100828.22;;;12.08;57.81
31121;BME280;17770;45.966;13.632;2023-01-28T11:44:14;100817.84;;;12.09;57.69
31121;BME280;17770;45.966;13.632;2023-01-28T11:51:43;100824.69;;;12.10;57.46
31121;BME280;17770;45.966;13.632;2023-01-28T12:12:05;100817.69;;;12.14;57.51
31121;BME280;17770;45.966;13.632;2023-01-28T12:27:25;100802.22;;;12.12;58.40
31121;BME280;17770;45.966;13.632;2023-01-28T12:35:53;100797.97;;;12.11;57.96
31121;BME280;17770;45.966;13.632;2023-01-28T12:46:05;100791.03;;;12.12;57.76
31121;BME280;17770;45.966;13.632;2023-01-28T12:48:36;100792.75;;;12.13;58.27
31121;BME280;17770;45.966;13.632;2023-01-28T12:51:09;100791.84;;;12.14;58.14
31121;BME280;17770;45.966;13.632;2023-01-28T12:53:38;100794.44;;;12.14;57.09
31121;BME280;17770;45.966;13.632;2023-01-28T13:01:46;100806.50;;;12.13;57.78
31121;BME280;17770;45.966;13.632;2023-01-28T13:04:16;100800.47;;;12.14;58.09
31121;BME280;17770;45.966;13.632;2023-01-28T13:06:44;100806.47;;;12.15;57.97
31121;BME280;17770;45.966;13.632;2023-01-28T13:09:14;100800.41;;;12.16;58.23
31121;BME280;17770;45.966;13.632;2023-01-28T13:11:41;100812.53;;;12.14;58.52
31121;BME280;17770;45.966;13.632;2023-01-28T13:14:08;100813.38;;;12.14;58.47
31121;BME280;17770;45.966;13.632;2023-01-28T13:16:34;100802.19;;;12.14;57.99
31121;BME280;17770;45.966;13.632;2023-01-28T13:19:05;100811.59;;;12.16;57.68
31121;BME280;17770;45.966;13.632;2023-01-28T13:21:34;100811.59;;;12.16;58.36
31121;BME280;17770;45.966;13.632;2023-01-28T13:26:36;100810.66;;;12.19;58.20
31121;BME280;17770;45.966;13.632;2023-01-28T13:29:28;100819.31;;;12.18;58.09
31121;BME280;17770;45.966;13.632;2023-01-28T13:31:54;100815.81;;;12.19;57.87
31121;BME280;17770;45.966;13.632;2023-01-28T13:37:43;100816.69;;;12.19;57.56
31121;BME280;17770;45.966;13.632;2023-01-28T13:39:48;100816.63;;;12.21;57.64
31121;BME280;17770;45.966;13.632;2023-01-28T13:42:22;100822.69;;;12.20;58.48
31121;BME280;17770;45.966;13.632;2023-01-28T13:44:48;100814.91;;;12.21;57.93
31121;BME280;17770;45.966;13.632;2023-01-28T13:47:18;100821.72;;;12.24;58.92
31121;BME280;17770;45.966;13.632;2023-01-28T13:49:46;100826.03;;;12.23;57.91
31121;BME280;17770;45.966;13.632;2023-01-28T13:52:18;100835.53;;;12.23;58.12
31121;BME280;17770;45.966;13.632;2023-01-28T14:10:33;100851.09;;;12.21;58.16
31121;BME280;17770;45.966;13.632;2023-01-28T14:18:09;100849.34;;;12.22;58.49
31121;BME280;17770;45.966;13.632;2023-01-28T14:20:42;100857.06;;;12.23;58.49
31121;BME280;17770;45.966;13.632;2023-01-28T14:23:18;100858.81;;;12.23;58.11
31121;BME280;17770;45.966;13.632;2023-01-28T14:28:18;100868.31;;;12.22;58.37
31121;BME280;17770;45.966;13.632;2023-01-28T14:30:50;100869.16;;;12.23;57.96
31121;BME280;17770;45.966;13.632;2023-01-28T14:33:18;100874.28;;;12.24;57.81
31121;BME280;17770;45.966;13.632;2023-01-28T14:35:45;100879.47;;;12.24;57.99
31121;BME280;17770;45.966;13.632;2023-01-28T14:38:21;100881.19;;;12.24;58.39
31121;BME280;17770;45.966;13.632;2023-01-28T14:40:48;100875.16;;;12.23;57.83
31121;BME280;17770;45.966;13.632;2023-01-28T14:43:15;100876.00;;;12.24;58.50
31121;BME280;17770;45.966;13.632;2023-01-28T14:58:05;100893.22;;;12.25;58.18
31121;BME280;17770;45.966;13.632;2023-01-28T15:00:33;100893.22;;;12.25;57.71
31121;BME280;17770;45.966;13.632;2023-01-28T15:03:00;100898.38;;;12.26;58.56
31121;BME280;17770;45.966;13.632;2023-01-28T15:05:32;100898.38;;;12.26;58.05
31121;BME280;17770;45.966;13.632;2023-01-28T15:07:58;100900.03;;;12.27;58.48
31121;BME280;17770;45.966;13.632;2023-01-28T15:10:59;100897.47;;;12.27;57.86